createdAt,value
2017-12-08T00:02:23.143Z,7.80
2017-12-08T00:04:50.907Z,8.87
2017-12-08T00:07:18.508Z,8.30
2017-12-08T00:09:46.091Z,8.40
2017-12-08T00:12:14.366Z,7.57
2017-12-08T00:14:41.950Z,7.73
2017-12-08T00:17:09.491Z,9.50
2017-12-08T00:19:37.073Z,7.70
2017-12-08T00:22:18.931Z,7.53
2017-12-08T00:24:46.447Z,7.70
2017-12-08T00:27:14.012Z,7.73
2017-12-08T00:29:41.637Z,8.20
2017-12-08T00:32:09.183Z,7.67
2017-12-08T00:34:36.741Z,8.63
2017-12-08T00:37:04.293Z,7.63
2017-12-08T00:39:31.814Z,8.57
2017-12-08T00:41:59.369Z,7.90
2017-12-08T00:44:26.882Z,7.70
2017-12-08T00:46:54.396Z,7.43
2017-12-08T00:49:21.951Z,7.97
2017-12-08T00:51:49.463Z,7.87
2017-12-08T00:54:17.014Z,7.03
2017-12-08T00:56:44.602Z,6.93
2017-12-08T00:59:12.150Z,5.90
2017-12-08T01:01:39.656Z,8.47
2017-12-08T01:04:07.190Z,6.43
2017-12-08T01:06:34.746Z,6.63
2017-12-08T01:09:02.269Z,6.50
2017-12-08T01:11:29.784Z,6.70
2017-12-08T01:21:35.807Z,6.70
2017-12-08T01:24:03.304Z,6.60
2017-12-08T01:26:31.428Z,6.47
2017-12-08T01:28:58.948Z,5.93
2017-12-08T01:31:26.507Z,5.73
2017-12-08T01:33:54.092Z,5.90
2017-12-08T01:36:21.590Z,6.80
2017-12-08T01:38:49.094Z,5.63
2017-12-08T01:41:16.594Z,5.40
2017-12-08T01:43:44.084Z,6.07
2017-12-08T01:46:11.636Z,6.00
2017-12-08T01:48:39.241Z,6.83
2017-12-08T01:51:06.804Z,6.97
2017-12-08T01:53:34.329Z,5.43
2017-12-08T01:56:01.854Z,5.83
2017-12-08T01:58:29.416Z,5.43
2017-12-08T02:00:56.955Z,6.20
2017-12-08T02:03:24.556Z,5.43
2017-12-08T02:05:52.117Z,5.00
2017-12-08T02:08:19.708Z,5.27
2017-12-08T02:10:48.373Z,8.53
2017-12-08T02:13:15.929Z,4.70
2017-12-08T02:15:43.484Z,4.90
2017-12-08T02:18:11.211Z,5.23
2017-12-08T02:20:38.812Z,5.47
2017-12-08T02:23:06.339Z,6.93
2017-12-08T02:25:33.880Z,5.63
2017-12-08T02:28:01.418Z,6.93
2017-12-08T02:30:28.955Z,5.70
2017-12-08T02:32:56.997Z,6.33
2017-12-08T02:35:24.598Z,5.43
2017-12-08T02:37:52.556Z,6.30
2017-12-08T02:40:20.088Z,5.07
2017-12-08T02:42:47.591Z,5.67
2017-12-08T02:45:15.144Z,5.30
2017-12-08T02:47:42.734Z,5.63
2017-12-08T02:50:11.063Z,5.27
2017-12-08T02:52:38.615Z,5.03
2017-12-08T02:55:06.189Z,5.57
2017-12-08T02:57:33.748Z,5.60
2017-12-08T03:00:01.348Z,5.47
2017-12-08T03:02:29.140Z,4.97
2017-12-08T03:04:56.629Z,4.90
2017-12-08T03:07:24.121Z,5.63
2017-12-08T03:09:51.686Z,4.53
2017-12-08T03:12:19.203Z,5.07
2017-12-08T03:14:47.490Z,4.40
2017-12-08T03:17:15.052Z,4.50
2017-12-08T03:19:42.735Z,3.63
2017-12-08T03:22:10.284Z,3.70
2017-12-08T03:24:37.787Z,3.70
2017-12-08T03:27:05.281Z,4.00
2017-12-08T03:29:32.804Z,3.80
2017-12-08T03:32:00.306Z,3.97
2017-12-08T03:34:27.850Z,3.90
2017-12-08T03:36:55.379Z,3.83
2017-12-08T03:39:22.880Z,3.77
2017-12-08T03:41:50.504Z,3.73
2017-12-08T03:44:18.000Z,3.97
2017-12-08T03:46:45.548Z,3.70
2017-12-08T03:49:13.139Z,4.33
2017-12-08T03:51:40.719Z,3.70
2017-12-08T03:54:08.225Z,3.50
2017-12-08T03:56:36.044Z,3.70
2017-12-08T03:59:03.581Z,4.27
2017-12-08T04:01:31.993Z,3.50
2017-12-08T04:04:00.651Z,3.83
2017-12-08T04:06:28.211Z,3.47
2017-12-08T04:08:55.766Z,4.10
2017-12-08T04:11:23.288Z,3.93
2017-12-08T04:13:50.811Z,3.97
2017-12-08T04:16:18.343Z,3.53
2017-12-08T04:18:45.887Z,3.83
2017-12-08T04:21:13.451Z,4.00
2017-12-08T04:23:41.030Z,3.27
2017-12-08T04:26:08.580Z,3.50
2017-12-08T04:28:36.143Z,3.80
2017-12-08T04:31:03.651Z,5.70
2017-12-08T04:33:31.170Z,6.23
2017-12-08T04:35:58.732Z,5.70
2017-12-08T04:38:26.327Z,6.53
2017-12-08T04:40:53.894Z,6.00
2017-12-08T04:43:21.431Z,4.13
2017-12-08T04:45:49.008Z,5.27
2017-12-08T04:48:16.596Z,4.37
2017-12-08T04:50:44.159Z,4.40
2017-12-08T04:53:11.663Z,4.70
2017-12-08T04:55:39.213Z,4.73
2017-12-08T04:58:06.727Z,4.83
2017-12-08T05:00:34.247Z,4.47
2017-12-08T05:03:06.751Z,4.63
2017-12-08T05:05:34.290Z,4.73
2017-12-08T05:08:01.873Z,4.60
2017-12-08T05:10:29.394Z,4.57
2017-12-08T05:12:57.878Z,4.50
2017-12-08T05:15:25.440Z,4.60
2017-12-08T05:17:52.966Z,5.67
2017-12-08T05:20:20.472Z,4.83
2017-12-08T05:22:47.995Z,6.27
2017-12-08T05:25:15.542Z,5.17
2017-12-08T05:27:43.088Z,5.63
2017-12-08T05:30:10.682Z,4.40
2017-12-08T05:32:38.231Z,6.77
2017-12-08T05:35:05.738Z,9.87
2017-12-08T05:37:33.266Z,5.23
2017-12-08T05:40:00.796Z,4.43
2017-12-08T05:42:28.383Z,6.47
2017-12-08T05:44:55.904Z,8.73
2017-12-08T05:47:23.465Z,7.17
2017-12-08T05:49:50.979Z,7.47
2017-12-08T05:52:18.551Z,8.20
2017-12-08T05:54:46.083Z,9.27
2017-12-08T05:57:13.809Z,6.70
2017-12-08T05:59:41.361Z,5.73
2017-12-08T06:02:08.898Z,7.57
2017-12-08T06:04:36.455Z,6.10
2017-12-08T06:07:03.966Z,6.87
2017-12-08T06:09:31.471Z,5.63
2017-12-08T06:11:59.082Z,6.93
2017-12-08T06:14:26.625Z,8.80
2017-12-08T06:16:54.178Z,9.47
2017-12-08T06:19:21.721Z,8.33
2017-12-08T06:21:49.281Z,10.03
2017-12-08T06:24:16.823Z,6.80
2017-12-08T06:26:44.325Z,6.13
2017-12-08T06:29:11.868Z,9.47
2017-12-08T06:31:39.388Z,7.00
2017-12-08T06:34:06.924Z,6.23
2017-12-08T06:36:34.502Z,10.70
2017-12-08T06:39:02.055Z,6.43
2017-12-08T06:41:29.556Z,8.00
2017-12-08T06:43:57.104Z,8.80
2017-12-08T06:46:24.636Z,9.07
2017-12-08T06:48:52.153Z,8.37
2017-12-08T06:51:19.737Z,6.63
2017-12-08T06:53:47.257Z,9.57
2017-12-08T06:56:14.853Z,8.50
2017-12-08T06:58:42.378Z,10.10
2017-12-08T07:01:14.920Z,7.43
2017-12-08T07:03:42.457Z,9.07
2017-12-08T07:06:10.021Z,11.27
2017-12-08T07:08:37.569Z,7.60
2017-12-08T07:11:05.122Z,8.30
2017-12-08T07:13:36.686Z,7.67
2017-12-08T07:16:04.201Z,9.70
2017-12-08T07:18:32.719Z,11.70
2017-12-08T07:21:00.236Z,9.17
2017-12-08T07:23:28.848Z,13.00
2017-12-08T07:25:56.992Z,8.80
2017-12-08T07:28:25.023Z,9.87
2017-12-08T07:30:52.588Z,8.87
2017-12-08T07:33:20.698Z,8.23
2017-12-08T07:35:49.498Z,9.10
2017-12-08T07:38:17.041Z,10.27
2017-12-08T07:40:45.424Z,10.53
2017-12-08T07:43:13.007Z,9.77
2017-12-08T07:45:40.948Z,11.27
2017-12-08T07:48:16.627Z,12.47
2017-12-08T07:50:44.213Z,9.33
2017-12-08T07:53:12.081Z,10.10
2017-12-08T07:55:39.743Z,12.70
2017-12-08T07:58:07.304Z,11.47
2017-12-08T08:00:34.883Z,12.23
2017-12-08T08:03:03.690Z,10.07
2017-12-08T08:05:31.589Z,9.63
2017-12-08T08:07:59.132Z,11.07
2017-12-08T08:10:26.740Z,13.53
2017-12-08T08:12:54.539Z,11.97
2017-12-08T08:15:22.139Z,8.63
2017-12-08T08:17:49.668Z,5.97
2017-12-08T08:20:17.340Z,6.17
2017-12-08T08:22:44.956Z,11.13
2017-12-08T08:25:12.541Z,7.63
2017-12-08T08:27:40.884Z,9.00
2017-12-08T08:30:08.659Z,9.73
2017-12-08T08:32:36.271Z,9.73
2017-12-08T08:35:03.856Z,10.17
2017-12-08T08:37:31.689Z,12.13
2017-12-08T08:39:59.250Z,6.83
2017-12-08T08:42:26.794Z,10.90
2017-12-08T08:44:54.412Z,9.50
2017-12-08T08:47:21.994Z,10.30
2017-12-08T08:49:49.845Z,10.83
2017-12-08T08:52:36.842Z,12.37
2017-12-08T08:55:04.481Z,11.90
2017-12-08T08:57:32.096Z,10.40
2017-12-08T08:59:59.682Z,11.77
2017-12-08T09:02:27.234Z,10.43
2017-12-08T09:04:55.678Z,10.77
2017-12-08T09:07:28.272Z,10.67
2017-12-08T09:09:56.700Z,10.40
2017-12-08T09:12:24.305Z,8.97
2017-12-08T09:14:51.865Z,10.57
2017-12-08T09:17:19.403Z,11.23
2017-12-08T09:19:46.990Z,11.37
2017-12-08T09:25:26.286Z,7.57
2017-12-08T09:27:53.868Z,7.30
2017-12-08T09:30:21.689Z,7.43
2017-12-08T09:32:49.270Z,8.30
2017-12-08T09:35:16.847Z,9.27
2017-12-08T09:37:44.380Z,7.27
2017-12-08T09:40:11.930Z,8.63
2017-12-08T09:42:39.540Z,10.03
2017-12-08T09:45:07.153Z,6.87
2017-12-08T09:47:35.017Z,5.47
2017-12-08T09:50:02.626Z,5.67
2017-12-08T09:52:30.182Z,9.57
2017-12-08T09:54:57.797Z,5.37
2017-12-08T09:57:25.348Z,9.03
2017-12-08T09:59:52.991Z,5.83
2017-12-08T10:02:20.637Z,8.27
2017-12-08T10:04:48.291Z,4.97
2017-12-08T10:07:15.895Z,6.90
2017-12-08T10:09:43.498Z,7.53
2017-12-08T10:12:11.104Z,7.07
2017-12-08T10:14:41.383Z,7.17
2017-12-08T10:17:10.862Z,9.07
2017-12-08T10:19:38.537Z,7.20
2017-12-08T10:22:07.217Z,5.67
2017-12-08T10:24:36.377Z,8.97
2017-12-08T10:27:04.019Z,9.13
2017-12-08T10:29:31.604Z,7.87
2017-12-08T10:31:59.176Z,5.93
2017-12-08T10:34:26.759Z,4.90
2017-12-08T10:36:54.353Z,4.17
2017-12-08T10:39:21.968Z,6.70
2017-12-08T10:41:51.573Z,5.17
2017-12-08T10:44:19.875Z,8.23
2017-12-08T10:46:50.420Z,4.53
2017-12-08T10:49:18.067Z,3.77
2017-12-08T10:51:46.440Z,4.33
2017-12-08T10:54:13.989Z,4.10
2017-12-08T10:56:42.269Z,3.33
2017-12-08T10:59:10.266Z,4.83
2017-12-08T11:01:37.794Z,5.73
2017-12-08T11:04:05.374Z,4.10
2017-12-08T11:06:35.423Z,3.13
2017-12-08T11:09:03.589Z,4.13
2017-12-08T11:11:31.175Z,3.80
2017-12-08T11:13:59.012Z,4.20
2017-12-08T11:16:26.831Z,3.57
2017-12-08T11:18:54.555Z,6.07
2017-12-08T11:21:23.094Z,3.83
2017-12-08T11:23:53.896Z,6.30
2017-12-08T11:26:21.734Z,3.73
2017-12-08T11:28:50.951Z,5.43
2017-12-08T11:31:19.593Z,6.10
2017-12-08T11:33:48.479Z,5.13
2017-12-08T11:36:18.004Z,8.30
2017-12-08T11:38:45.664Z,5.30
2017-12-08T11:41:14.733Z,3.80
2017-12-08T11:43:43.686Z,6.63
2017-12-08T11:46:11.269Z,8.50
2017-12-08T11:48:38.897Z,8.07
2017-12-08T11:51:06.475Z,7.70
2017-12-08T11:53:34.042Z,6.93
2017-12-08T11:56:01.608Z,5.27
2017-12-08T11:58:29.215Z,3.53
2017-12-08T12:00:56.822Z,4.60
2017-12-08T12:03:24.433Z,4.43
2017-12-08T12:05:52.069Z,8.23
2017-12-08T12:08:19.726Z,8.43
2017-12-08T12:10:47.389Z,5.43
2017-12-08T12:13:15.155Z,7.53
2017-12-08T12:15:42.736Z,5.97
2017-12-08T12:18:11.127Z,5.53
2017-12-08T12:20:38.712Z,4.70
2017-12-08T12:23:08.757Z,9.07
2017-12-08T12:25:37.455Z,8.60
2017-12-08T12:28:05.250Z,6.47
2017-12-08T12:30:32.867Z,7.73
2017-12-08T12:33:01.134Z,5.27
2017-12-08T12:35:28.722Z,5.97
2017-12-08T12:37:56.344Z,6.93
2017-12-08T12:40:24.080Z,6.57
2017-12-08T12:43:10.999Z,8.27
2017-12-08T12:45:38.896Z,6.50
2017-12-08T12:48:06.475Z,6.23
2017-12-08T12:50:34.091Z,6.13
2017-12-08T12:53:01.661Z,5.33
2017-12-08T12:55:30.170Z,6.10
2017-12-08T12:57:59.220Z,7.40
2017-12-08T13:00:26.849Z,7.87
2017-12-08T13:02:54.526Z,6.60
2017-12-08T13:05:22.129Z,6.87
2017-12-08T13:07:49.701Z,9.03
2017-12-08T13:10:17.273Z,6.70
2017-12-08T13:12:44.938Z,9.30
2017-12-08T13:15:12.593Z,7.90
2017-12-08T13:17:42.083Z,12.53
2017-12-08T13:20:09.719Z,7.77
2017-12-08T13:22:41.816Z,7.57
2017-12-08T13:25:09.313Z,7.50
2017-12-08T13:27:36.794Z,5.57
2017-12-08T13:30:04.326Z,9.47
2017-12-08T13:32:31.902Z,15.07
2017-12-08T13:35:00.176Z,7.50
2017-12-08T13:37:27.740Z,6.67
2017-12-08T13:39:55.306Z,6.60
2017-12-08T13:42:24.668Z,6.80
2017-12-08T13:44:52.956Z,8.10
2017-12-08T13:47:20.897Z,10.73
2017-12-08T13:49:49.147Z,9.20
2017-12-08T13:52:17.024Z,6.63
2017-12-08T13:54:57.088Z,9.27
2017-12-08T13:57:24.834Z,11.63
2017-12-08T13:59:52.521Z,6.90
2017-12-08T14:05:12.630Z,3.70
2017-12-08T14:07:40.111Z,5.57
2017-12-08T14:10:07.690Z,3.33
2017-12-08T14:12:35.227Z,2.00
2017-12-08T14:15:03.470Z,3.10
2017-12-08T14:17:32.202Z,3.07
2017-12-08T14:20:00.765Z,3.67
2017-12-08T14:22:28.466Z,2.63
2017-12-08T14:24:56.304Z,2.20
2017-12-08T14:27:23.967Z,3.20
2017-12-08T14:29:51.425Z,3.83
2017-12-08T14:32:19.009Z,3.63
2017-12-08T14:34:46.563Z,3.57
2017-12-08T14:37:14.101Z,3.63
2017-12-08T14:39:41.616Z,4.57
2017-12-08T14:42:11.381Z,2.97
2017-12-08T14:44:42.218Z,3.43
2017-12-08T14:47:09.758Z,3.13
2017-12-08T14:49:41.852Z,3.53
2017-12-08T14:52:12.676Z,3.10
2017-12-08T14:54:40.360Z,4.93
2017-12-08T14:57:07.894Z,4.27
2017-12-08T14:59:35.338Z,3.97
2017-12-08T15:02:04.398Z,5.07
2017-12-08T15:04:33.007Z,6.60
2017-12-08T15:07:00.476Z,8.50
2017-12-08T15:09:28.051Z,5.20
2017-12-08T15:11:56.690Z,7.17
2017-12-08T15:14:24.248Z,4.53
2017-12-08T15:16:51.705Z,5.90
2017-12-08T15:19:19.154Z,4.73
2017-12-08T15:21:46.758Z,5.47
2017-12-08T15:24:14.468Z,6.87
2017-12-08T15:26:42.017Z,4.40
2017-12-08T15:29:09.495Z,7.97
2017-12-08T15:31:36.936Z,4.63
2017-12-08T15:34:04.378Z,8.20
2017-12-08T15:36:31.836Z,4.47
2017-12-08T15:38:59.442Z,9.60
2017-12-08T15:41:26.967Z,7.73
2017-12-08T15:43:54.427Z,4.53
2017-12-08T15:46:21.986Z,6.10
2017-12-08T15:48:49.535Z,6.53
2017-12-08T15:51:17.079Z,7.57
2017-12-08T15:53:44.663Z,4.87
2017-12-08T15:56:12.630Z,5.37
2017-12-08T15:58:40.115Z,6.10
2017-12-08T16:01:07.663Z,9.13
2017-12-08T16:03:35.181Z,5.33
2017-12-08T16:06:02.673Z,6.17
2017-12-08T16:08:30.188Z,8.37
2017-12-08T16:10:57.645Z,6.23
2017-12-08T16:13:25.170Z,4.53
2017-12-08T16:15:52.666Z,5.70
2017-12-08T16:18:20.202Z,4.17
2017-12-08T16:20:47.633Z,6.80
2017-12-08T16:23:15.109Z,5.53
2017-12-08T16:25:42.610Z,4.03
2017-12-08T16:28:10.044Z,8.00
2017-12-08T16:30:37.660Z,5.70
2017-12-08T16:33:05.137Z,4.97
2017-12-08T16:35:32.612Z,4.27
2017-12-08T16:38:00.088Z,7.03
2017-12-08T16:40:27.646Z,6.50
2017-12-08T16:42:55.185Z,6.17
2017-12-08T16:45:22.704Z,7.17
2017-12-08T16:47:50.207Z,6.60
2017-12-08T16:50:17.677Z,5.97
2017-12-08T16:52:45.964Z,6.13
2017-12-08T16:55:13.454Z,6.07
2017-12-08T16:57:40.932Z,7.03
2017-12-08T17:00:08.400Z,7.20
2017-12-08T17:02:35.912Z,4.93
2017-12-08T17:05:03.378Z,4.97
2017-12-08T17:07:30.838Z,8.17
2017-12-08T17:09:58.364Z,8.57
2017-12-08T17:12:25.881Z,5.43
2017-12-08T17:14:53.331Z,7.17
2017-12-08T17:17:20.773Z,8.03
2017-12-08T17:19:48.261Z,6.67
2017-12-08T17:22:15.717Z,4.97
2017-12-08T17:24:43.278Z,6.57
2017-12-08T17:27:10.813Z,6.97
2017-12-08T17:29:38.309Z,5.60
2017-12-08T17:32:05.894Z,7.87
2017-12-08T17:34:33.403Z,8.83
2017-12-08T17:37:00.844Z,8.13
2017-12-08T17:39:28.330Z,6.83
2017-12-08T17:41:55.807Z,7.83
2017-12-08T17:44:23.306Z,5.67
2017-12-08T17:46:50.817Z,10.03
2017-12-08T17:49:18.454Z,8.70
2017-12-08T17:51:45.932Z,5.17
2017-12-08T17:54:13.420Z,4.70
2017-12-08T17:56:40.986Z,7.53
2017-12-08T17:59:10.842Z,5.63
2017-12-08T18:01:38.333Z,7.70
2017-12-08T18:04:05.820Z,6.93
2017-12-08T18:06:33.260Z,4.93
2017-12-08T18:09:00.776Z,7.97
2017-12-08T18:11:28.352Z,5.97
2017-12-08T18:13:56.104Z,6.97
2017-12-08T18:16:23.652Z,7.90
2017-12-08T18:18:51.163Z,8.70
2017-12-08T18:21:18.646Z,7.97
2017-12-08T18:23:46.137Z,5.50
2017-12-08T18:26:14.244Z,5.33
2017-12-08T18:28:41.723Z,5.17
2017-12-08T18:31:09.225Z,6.27
2017-12-08T18:33:36.711Z,6.03
2017-12-08T18:36:04.230Z,7.83
2017-12-08T18:38:31.677Z,5.57
2017-12-08T18:40:59.216Z,6.60
2017-12-08T18:43:26.741Z,4.33
2017-12-08T18:45:54.237Z,8.73
2017-12-08T18:48:21.936Z,6.37
2017-12-08T18:50:49.401Z,6.03
2017-12-08T18:53:16.872Z,6.63
2017-12-08T18:55:44.401Z,6.63
2017-12-08T18:58:11.868Z,5.07
2017-12-08T19:00:39.635Z,6.50
2017-12-08T19:03:07.093Z,9.00
2017-12-08T19:05:34.580Z,5.03
2017-12-08T19:08:02.092Z,7.00
2017-12-08T19:10:29.753Z,6.50
2017-12-08T19:13:06.937Z,5.53
2017-12-08T19:15:34.438Z,5.00
2017-12-08T19:18:01.995Z,8.23
2017-12-08T19:20:29.522Z,6.20
2017-12-08T19:22:57.123Z,5.57
2017-12-08T19:25:24.646Z,8.20
2017-12-08T19:27:52.173Z,6.07
2017-12-08T19:30:19.633Z,7.73
2017-12-08T19:32:48.159Z,7.40
2017-12-08T19:35:15.669Z,7.63
2017-12-08T19:37:43.213Z,5.93
2017-12-08T19:40:10.757Z,5.60
2017-12-08T19:42:43.460Z,4.87
2017-12-08T19:45:10.993Z,7.63
2017-12-08T19:47:38.504Z,6.80
2017-12-08T19:50:06.047Z,5.77
2017-12-08T19:52:33.535Z,6.20
2017-12-08T19:55:01.052Z,6.13
2017-12-08T19:57:28.638Z,4.93
2017-12-08T19:59:56.247Z,9.57
2017-12-08T20:02:47.434Z,8.50
2017-12-08T20:05:14.924Z,7.33
2017-12-08T20:07:42.389Z,6.13
2017-12-08T20:10:09.873Z,8.07
2017-12-08T20:12:37.403Z,7.23
2017-12-08T20:15:05.520Z,7.20
2017-12-08T20:17:32.979Z,6.57
2017-12-08T20:20:00.611Z,6.50
2017-12-08T20:22:28.245Z,8.07
2017-12-08T20:24:55.819Z,6.97
2017-12-08T20:27:23.379Z,8.90
2017-12-08T20:29:50.948Z,6.10
2017-12-08T20:32:18.482Z,6.77
2017-12-08T20:34:45.980Z,5.83
2017-12-08T20:37:13.750Z,5.43
2017-12-08T20:39:41.182Z,7.40
2017-12-08T20:42:08.710Z,5.83
2017-12-08T20:44:36.421Z,6.90
2017-12-08T20:47:03.889Z,7.37
2017-12-08T20:49:31.393Z,5.90
2017-12-08T20:51:58.946Z,6.40
2017-12-08T20:54:26.397Z,5.67
2017-12-08T20:56:53.858Z,5.93
2017-12-08T20:59:21.639Z,6.50
2017-12-08T21:01:49.140Z,5.50
2017-12-08T21:04:16.827Z,7.73
2017-12-08T21:06:44.351Z,6.77
2017-12-08T21:09:11.772Z,7.90
2017-12-08T21:11:40.009Z,6.60
2017-12-08T21:14:07.551Z,6.23
2017-12-08T21:16:35.572Z,5.97
2017-12-08T21:19:03.050Z,5.57
2017-12-08T21:21:30.501Z,5.27
2017-12-08T21:23:57.971Z,6.80
2017-12-08T21:26:25.454Z,7.27
2017-12-08T21:28:52.933Z,5.77
2017-12-08T21:31:20.393Z,8.93
2017-12-08T21:33:48.574Z,7.00
2017-12-08T21:36:16.048Z,6.50
2017-12-08T21:38:43.599Z,6.67
2017-12-08T21:41:11.048Z,6.77
2017-12-08T21:43:38.497Z,7.13
2017-12-08T21:46:05.956Z,6.60
2017-12-08T21:48:33.478Z,6.23
2017-12-08T21:51:00.991Z,7.20
2017-12-08T21:53:28.430Z,7.40
2017-12-08T21:55:55.945Z,11.57
2017-12-08T21:58:23.456Z,9.90
2017-12-08T22:00:51.491Z,10.37
2017-12-08T22:03:18.972Z,5.60
2017-12-08T22:05:46.500Z,6.53
2017-12-08T22:08:14.052Z,5.77
2017-12-08T22:10:41.501Z,6.33
2017-12-08T22:13:09.070Z,6.80
2017-12-08T22:15:36.528Z,5.87
2017-12-08T22:18:04.133Z,8.70
2017-12-08T22:20:31.679Z,9.00
2017-12-08T22:26:06.196Z,7.73
2017-12-08T22:28:33.652Z,6.23
2017-12-08T22:31:01.191Z,6.17
2017-12-08T22:33:28.702Z,9.07
2017-12-08T22:35:56.235Z,6.63
2017-12-08T22:38:23.765Z,8.33
2017-12-08T22:40:51.251Z,6.33
2017-12-08T22:43:18.771Z,6.93
2017-12-08T22:45:46.422Z,7.40
2017-12-08T22:48:13.888Z,7.60
2017-12-08T22:50:42.261Z,9.03
2017-12-08T22:53:09.765Z,5.83
2017-12-08T22:55:37.304Z,6.27
2017-12-08T22:58:04.802Z,6.37
2017-12-08T23:00:33.303Z,7.23
2017-12-08T23:03:00.978Z,5.80
2017-12-08T23:05:28.579Z,5.73
2017-12-08T23:07:56.042Z,6.80
2017-12-08T23:10:23.522Z,7.37
2017-12-08T23:12:51.054Z,5.47
2017-12-08T23:15:18.478Z,6.93
2017-12-08T23:17:46.007Z,7.27
2017-12-08T23:20:13.733Z,7.90
2017-12-08T23:22:41.230Z,6.63
2017-12-08T23:25:08.683Z,6.63
2017-12-08T23:27:36.165Z,7.10
2017-12-08T23:30:03.756Z,5.33
2017-12-08T23:32:31.261Z,5.70
2017-12-08T23:34:58.753Z,4.27
2017-12-08T23:37:26.248Z,5.30
2017-12-08T23:39:53.756Z,9.43
2017-12-08T23:42:21.246Z,5.33
2017-12-08T23:44:48.729Z,4.63
2017-12-08T23:47:16.240Z,4.97
2017-12-08T23:49:43.717Z,6.17
2017-12-08T23:52:11.151Z,6.93
2017-12-08T23:54:38.645Z,7.47
2017-12-08T23:57:06.155Z,7.17
2017-12-08T23:59:33.641Z,5.93
